Airfield :
LOGIN :

Register | Disclaimer

   EN    FR    IT 

 










Legend :    VFR   Marginal VFR   IFR   Intensive IFR   Very Intensive IFR
Visi :
Ceiling :
>= 8 km
>= 3000ft
5 to 8 km
1000 to 3000 ft
1500m to 5 km
500 to 1000 ft
800 to 1500m
200 to 500 ft
< 800m
< 200 ft
Symbols :   Thunderstorms  Fog  Heavy snow  Heavy precipitations  Wind > 20 kt
SIGMETs :     Misc.  Thunderstorms  Icing  Turbulence  Mountain Waves  Volcanic Ashes






- Airport Elevation : 313 ft
- IATA code : LEH


LFOH - Le Havre Octeville

CURRENT METAR :
  • 251230Z AUTO 34010KT 320V020 CAVOK 06/M01 Q1012 NOSIG

EXPIRED METARs :
  • 251200Z AUTO 36010KT 340V040 CAVOK 06/M01 Q1011 BECMG 28010KT
  • 251130Z AUTO 36010KT 340V050 CAVOK 06/M01 Q1011 BECMG 28010KT
  • 251100Z AUTO 36011KT 340V040 9999 FEW032 05/M01 Q1011 NOSIG
  • 251030Z AUTO 36013KT 350V050 9999 FEW027 04/M01 Q1010 NOSIG

TAF TAF LFOH
Valid from the 25 at 12:00 until the 26 at 12:00 UTC


251100Z 2512/2612 36013KT CAVOK
BECMG 2513/2516 28010KT
BECMG 2602/2605 20010KT
ATIS : +33 2 35 54 64 93



MET'MAP, your aeronautical weather chart ! - Copyright ORBIFLY December 2007 - Disclaimer

ORBIFLY MET'MAP TEAM :

Programming & Development : Alexandra Zaïnal
Concept & original design : Baudouin d'Aumeries
Assistance for programming : Marc-Olivier Méhu
Technical & hardware support : Manuel Goepfert

Contact : metmap@orbifly.com




SOURCES & CREDITS :

   NOAA